Time;durP1;ratioP1;P1;durP2;ratioP2;P2;SDS_P1;SDS_P2;PMS_P1;PMS_P2;Temp;Humidity;BMP_temperature;BMP_pressure;BME280_temperature;BME280_humidity;BME280_pressure;Samples;Min_cycle;Max_cycle;Signal;HPM_P1;HPM_P2
2023/12/23 00:01:09;;;;;;;0.00;0.00;;;;;;;7.87;100.00;98111.50;5132797;27;20308;-52
2023/12/23 00:03:58;;;;;;;0.00;0.00;;;;;;;7.85;100.00;98130.06;5132878;27;20198;-53
2023/12/23 00:06:49;;;;;;;0.00;0.00;;;;;;;7.84;100.00;98141.56;5131132;27;20206;-53
2023/12/23 00:09:37;;;;;;;0.00;0.00;;;;;;;7.79;100.00;98140.19;5132138;27;20243;-53
2023/12/23 00:12:26;;;;;;;0.00;0.00;;;;;;;7.74;100.00;98153.69;5131019;27;20640;-52
2023/12/23 00:15:15;;;;;;;0.00;0.00;;;;;;;7.78;100.00;98151.66;5132826;27;20303;-52
2023/12/23 00:18:06;;;;;;;0.00;0.00;;;;;;;7.82;100.00;98153.16;5131573;27;20229;-52
2023/12/23 00:20:57;;;;;;;0.00;0.00;;;;;;;7.79;100.00;98146.28;5132434;27;20193;-53
2023/12/23 00:23:44;;;;;;;0.00;0.00;;;;;;;7.77;100.00;98145.56;5129450;28;20205;-52
2023/12/23 00:26:30;;;;;;;0.00;0.00;;;;;;;7.78;100.00;98160.41;5131583;28;20255;-53
2023/12/23 00:29:17;;;;;;;0.00;0.00;;;;;;;7.83;100.00;98162.75;5131305;28;20198;-53
2023/12/23 00:32:05;;;;;;;0.00;0.00;;;;;;;7.74;100.00;98172.13;5131698;28;20226;-52
2023/12/23 00:34:54;;;;;;;0.00;0.00;;;;;;;7.71;100.00;98161.78;5131076;28;20213;-52
2023/12/23 00:37:41;;;;;;;0.00;0.00;;;;;;;7.72;100.00;98156.44;5131608;28;20209;-52
2023/12/23 00:40:27;;;;;;;0.00;0.00;;;;;;;7.81;100.00;98168.09;5132561;28;20679;-53
2023/12/23 00:43:14;;;;;;;0.00;0.00;;;;;;;7.81;100.00;98175.16;5131754;28;20197;-53
2023/12/23 00:46:02;;;;;;;0.00;0.00;;;;;;;7.80;100.00;98184.88;5131940;28;20305;-52
2023/12/23 00:48:49;;;;;;;0.00;0.00;;;;;;;7.80;100.00;98182.25;5131821;28;20194;-52
2023/12/23 00:51:37;;;;;;;0.00;0.00;;;;;;;7.79;100.00;98192.88;5130396;28;20247;-52
2023/12/23 00:54:24;;;;;;;0.00;0.00;;;;;;;7.83;100.00;98210.19;5130194;28;20210;-52
2023/12/23 00:57:11;;;;;;;0.10;0.10;;;;;;;7.81;100.00;98212.91;5131897;28;20205;-52
2023/12/23 00:59:58;;;;;;;0.00;0.00;;;;;;;7.79;100.00;98220.09;5132231;28;20676;-52
2023/12/23 01:02:45;;;;;;;0.00;0.00;;;;;;;7.82;100.00;98229.59;5129642;28;20263;-53
2023/12/23 01:05:32;;;;;;;0.00;0.00;;;;;;;7.82;100.00;98225.19;5132798;28;20270;-53
2023/12/23 01:08:20;;;;;;;0.00;0.00;;;;;;;7.85;100.00;98219.69;5130239;28;20312;-53
2023/12/23 01:11:07;;;;;;;0.00;0.00;;;;;;;7.81;100.00;98223.47;5131008;28;20194;-52
2023/12/23 01:13:54;;;;;;;0.00;0.00;;;;;;;7.78;100.00;98215.78;5131281;28;20205;-52
2023/12/23 01:16:41;;;;;;;0.10;0.10;;;;;;;7.80;100.00;98221.78;5132576;28;20201;-52
2023/12/23 01:19:28;;;;;;;0.00;0.00;;;;;;;7.87;100.00;98224.84;5131779;28;20263;-53
2023/12/23 01:22:15;;;;;;;0.00;0.00;;;;;;;7.77;100.00;98226.41;5131052;28;20193;-52
2023/12/23 01:25:03;;;;;;;0.00;0.00;;;;;;;7.82;100.00;98237.50;5133219;28;20251;-53
2023/12/23 01:27:50;;;;;;;0.00;0.00;;;;;;;7.74;100.00;98244.13;5133283;27;20308;-53
2023/12/23 01:30:37;;;;;;;0.00;0.00;;;;;;;7.76;100.00;98241.41;5135932;27;20698;-52
2023/12/23 01:33:23;;;;;;;0.00;0.00;;;;;;;7.79;100.00;98246.44;5137072;27;20284;-52
2023/12/23 01:36:10;;;;;;;0.00;0.00;;;;;;;7.83;100.00;98258.50;5136561;27;20402;-53
2023/12/23 01:38:57;;;;;;;0.00;0.00;;;;;;;7.74;100.00;98248.56;5136887;27;20197;-53
2023/12/23 01:41:46;;;;;;;0.00;0.00;;;;;;;7.79;100.00;98246.44;5135936;27;20193;-52
2023/12/23 01:44:32;;;;;;;0.00;0.00;;;;;;;7.77;100.00;98255.41;5136835;27;20342;-52
2023/12/23 01:47:19;;;;;;;0.00;0.00;;;;;;;7.71;100.00;98254.88;5136556;27;20202;-52
2023/12/23 01:50:07;;;;;;;0.00;0.00;;;;;;;7.73;100.00;98273.25;5136579;27;20262;-52
2023/12/23 01:52:57;;;;;;;0.00;0.00;;;;;;;7.70;100.00;98263.72;5135188;27;20251;-52
2023/12/23 01:55:45;;;;;;;0.00;0.00;;;;;;;7.69;100.00;98269.94;5136170;27;20359;-53
2023/12/23 01:58:34;;;;;;;0.00;0.00;;;;;;;7.69;100.00;98262.03;5135690;27;20197;-52
2023/12/23 02:01:21;;;;;;;0.00;0.00;;;;;;;7.68;100.00;98272.69;5136382;27;20216;-52
2023/12/23 02:04:08;;;;;;;0.00;0.00;;;;;;;7.69;100.00;98272.56;5135205;27;20212;-53
2023/12/23 02:06:55;;;;;;;0.00;0.00;;;;;;;7.73;100.00;98262.69;5135225;27;20185;-52
2023/12/23 02:09:42;;;;;;;0.00;0.00;;;;;;;7.67;100.00;98277.13;5136260;27;20241;-52
2023/12/23 02:12:37;;;;;;;0.00;0.00;;;;;;;7.72;100.00;98282.06;5136022;27;20201;-52
2023/12/23 02:15:28;;;;;;;0.00;0.00;;;;;;;7.71;100.00;98285.66;5134884;27;20217;-52
2023/12/23 02:18:15;;;;;;;0.00;0.00;;;;;;;7.74;100.00;98281.03;5134847;27;20216;-52
2023/12/23 02:21:05;;;;;;;0.00;0.00;;;;;;;7.66;100.00;98280.69;5134570;27;20203;-52
2023/12/23 02:23:52;;;;;;;0.00;0.00;;;;;;;7.79;100.00;98293.06;5135925;27;20243;-52
2023/12/23 02:26:41;;;;;;;0.00;0.00;;;;;;;7.75;100.00;98290.63;5136010;27;20199;-52
2023/12/23 02:29:30;;;;;;;0.00;0.00;;;;;;;7.71;100.00;98277.75;5135902;27;20193;-53
2023/12/23 02:32:18;;;;;;;0.00;0.00;;;;;;;7.79;100.00;98282.50;5135846;27;20193;-52
2023/12/23 02:35:06;;;;;;;0.00;0.00;;;;;;;7.82;100.00;98287.59;5135648;27;20220;-53
2023/12/23 02:37:55;;;;;;;0.00;0.00;;;;;;;7.70;100.00;98283.97;5133523;27;20209;-53
2023/12/23 02:40:42;;;;;;;0.00;0.00;;;;;;;7.65;100.00;98292.19;5135663;27;20190;-52
2023/12/23 02:43:29;;;;;;;0.00;0.00;;;;;;;7.67;100.00;98282.38;5135310;27;20189;-52
2023/12/23 02:46:16;;;;;;;0.00;0.00;;;;;;;7.58;100.00;98287.41;5135437;27;20205;-53
2023/12/23 02:49:03;;;;;;;0.00;0.00;;;;;;;7.57;100.00;98293.63;5134513;27;20196;-53
2023/12/23 02:51:50;;;;;;;0.00;0.00;;;;;;;7.53;100.00;98287.72;5134058;27;20197;-52
2023/12/23 02:54:38;;;;;;;0.10;0.10;;;;;;;7.58;100.00;98300.59;5135334;27;20201;-52
2023/12/23 02:57:26;;;;;;;0.00;0.00;;;;;;;7.54;100.00;98292.06;5135224;27;20215;-52
2023/12/23 03:00:14;;;;;;;0.00;0.00;;;;;;;7.59;100.00;98292.59;5135239;27;20197;-53
2023/12/23 03:03:00;;;;;;;0.00;0.00;;;;;;;7.53;100.00;98290.38;5135186;27;20185;-52
2023/12/23 03:05:47;;;;;;;0.00;0.00;;;;;;;7.50;100.00;98300.25;5134213;27;20205;-53
2023/12/23 03:08:34;;;;;;;0.10;0.10;;;;;;;7.51;100.00;98299.28;5132774;27;20231;-52
2023/12/23 03:11:22;;;;;;;0.00;0.00;;;;;;;7.50;100.00;98306.34;5135126;27;20193;-52
2023/12/23 03:14:09;;;;;;;0.00;0.00;;;;;;;7.41;100.00;98306.94;5135045;27;20253;-52
2023/12/23 03:16:56;;;;;;;0.00;0.00;;;;;;;7.38;100.00;98299.25;5134713;27;20331;-52
2023/12/23 03:19:43;;;;;;;0.00;0.00;;;;;;;7.39;100.00;98307.06;5134631;27;20225;-53
2023/12/23 03:22:30;;;;;;;0.00;0.00;;;;;;;7.38;100.00;98301.88;5133431;27;20246;-53
2023/12/23 03:25:17;;;;;;;0.03;0.03;;;;;;;7.34;100.00;98298.63;5134748;27;20664;-52
2023/12/23 03:28:05;;;;;;;0.00;0.00;;;;;;;7.26;100.00;98287.72;5134757;27;20189;-52
2023/12/23 03:30:54;;;;;;;0.00;0.00;;;;;;;7.28;100.00;98290.25;5133771;27;20243;-53
2023/12/23 03:33:41;;;;;;;0.00;0.00;;;;;;;7.32;100.00;98294.38;5134704;27;20197;-52
2023/12/23 03:36:28;;;;;;;0.00;0.00;;;;;;;7.37;100.00;98306.31;5132991;27;20220;-53
2023/12/23 03:39:14;;;;;;;0.00;0.00;;;;;;;7.23;100.00;98314.25;5134574;27;20396;-53
2023/12/23 03:42:01;;;;;;;0.00;0.00;;;;;;;7.20;100.00;98303.91;5134503;27;20654;-53
2023/12/23 03:44:50;;;;;;;0.00;0.00;;;;;;;7.14;100.00;98314.81;5133562;27;20256;-52
2023/12/23 03:47:38;;;;;;;0.00;0.00;;;;;;;7.08;100.00;98294.19;5134587;27;20291;-52
2023/12/23 03:50:25;;;;;;;0.00;0.00;;;;;;;7.00;100.00;98278.03;5134182;27;20239;-52
2023/12/23 03:53:12;;;;;;;0.00;0.00;;;;;;;6.85;100.00;98267.53;5132974;27;20203;-52
2023/12/23 03:55:59;;;;;;;0.00;0.00;;;;;;;6.82;100.00;98262.44;5134164;27;20209;-52
2023/12/23 03:58:46;;;;;;;0.00;0.00;;;;;;;6.84;100.00;98267.59;5134086;27;20324;-52
2023/12/23 04:01:34;;;;;;;0.00;0.00;;;;;;;6.84;100.00;98275.50;5134097;27;20194;-52
2023/12/23 04:04:21;;;;;;;0.00;0.00;;;;;;;6.78;100.00;98276.75;5133159;27;20197;-53
2023/12/23 04:07:08;;;;;;;0.00;0.00;;;;;;;6.66;100.00;98280.16;5131635;27;20547;-52
2023/12/23 04:09:55;;;;;;;0.00;0.00;;;;;;;6.82;100.00;98272.97;5133062;27;20227;-52
2023/12/23 04:12:42;;;;;;;0.00;0.00;;;;;;;6.60;100.00;98281.38;5133996;27;20227;-53
2023/12/23 04:15:29;;;;;;;0.00;0.00;;;;;;;6.71;100.00;98285.13;5132766;27;20196;-52
2023/12/23 04:18:17;;;;;;;0.00;0.00;;;;;;;6.74;100.00;98282.28;5133809;27;20225;-52
2023/12/23 04:21:08;;;;;;;0.00;0.00;;;;;;;6.74;100.00;98277.88;5133000;27;20196;-52
2023/12/23 04:23:55;;;;;;;0.00;0.00;;;;;;;6.69;100.00;98272.06;5132804;28;20544;-52
2023/12/23 04:26:41;;;;;;;0.00;0.00;;;;;;;6.81;100.00;98267.81;5132883;28;20218;-52
2023/12/23 04:29:29;;;;;;;0.00;0.00;;;;;;;6.80;100.00;98276.66;5132831;28;20227;-52
2023/12/23 04:32:16;;;;;;;0.00;0.00;;;;;;;6.74;100.00;98269.13;5132728;28;20650;-52
2023/12/23 04:35:05;;;;;;;0.00;0.00;;;;;;;6.78;100.00;98268.00;5132848;28;20231;-52
2023/12/23 04:37:53;;;;;;;0.00;0.00;;;;;;;6.73;100.00;98265.66;5131154;28;20217;-52
2023/12/23 04:40:42;;;;;;;0.00;0.00;;;;;;;6.92;100.00;98259.22;5132514;28;20211;-52
2023/12/23 04:43:30;;;;;;;0.00;0.00;;;;;;;6.78;100.00;98241.69;5132688;28;20201;-52
2023/12/23 04:46:17;;;;;;;0.00;0.00;;;;;;;6.89;100.00;98241.84;5132688;28;20193;-52
2023/12/23 04:49:04;;;;;;;0.00;0.00;;;;;;;6.85;100.00;98242.97;5132515;28;20265;-52
2023/12/23 04:51:52;;;;;;;0.00;0.00;;;;;;;6.90;100.00;98238.28;5132315;28;20200;-52
2023/12/23 04:54:39;;;;;;;0.00;0.00;;;;;;;6.91;100.00;98224.16;5132510;28;20228;-52
2023/12/23 04:57:27;;;;;;;0.00;0.00;;;;;;;6.92;100.00;98225.00;5132253;28;20263;-52
2023/12/23 05:00:15;;;;;;;0.00;0.00;;;;;;;6.93;100.00;98218.81;5133685;28;20193;-52
2023/12/23 05:03:02;;;;;;;0.00;0.00;;;;;;;6.96;100.00;98213.34;5133997;27;20194;-52
2023/12/23 05:05:49;;;;;;;0.00;0.00;;;;;;;6.99;100.00;98213.16;5137428;27;20231;-52
2023/12/23 05:08:37;;;;;;;0.00;0.00;;;;;;;7.13;100.00;98218.34;5135139;27;20742;-53
2023/12/23 05:11:25;;;;;;;0.00;0.00;;;;;;;7.22;100.00;98206.38;5136472;27;20197;-52
2023/12/23 05:14:11;;;;;;;0.00;0.00;;;;;;;7.23;100.00;98213.34;5136323;27;20193;-52
2023/12/23 05:16:58;;;;;;;0.00;0.00;;;;;;;7.26;100.00;98199.97;5136112;27;20323;-52
2023/12/23 05:19:47;;;;;;;0.00;0.00;;;;;;;7.31;100.00;98197.88;5135835;27;20244;-52
2023/12/23 05:22:33;;;;;;;0.00;0.00;;;;;;;7.38;100.00;98194.75;5135810;27;20235;-52
2023/12/23 05:25:22;;;;;;;0.00;0.00;;;;;;;7.49;100.00;98196.66;5136244;27;20266;-52
2023/12/23 05:28:09;;;;;;;0.00;0.00;;;;;;;7.51;100.00;98191.28;5137190;27;20193;-53
2023/12/23 05:30:55;;;;;;;0.00;0.00;;;;;;;7.51;100.00;98189.47;5135870;27;20232;-52
2023/12/23 05:33:43;;;;;;;0.00;0.00;;;;;;;7.54;100.00;98189.31;5136958;27;20198;-52
2023/12/23 05:36:29;;;;;;;0.00;0.00;;;;;;;7.55;100.00;98187.50;5135547;27;20233;-52
2023/12/23 05:39:16;;;;;;;0.00;0.00;;;;;;;7.59;100.00;98186.34;5136776;27;20725;-52
2023/12/23 05:42:05;;;;;;;0.00;0.00;;;;;;;7.59;100.00;98175.78;5136867;27;20186;-52
2023/12/23 05:44:52;;;;;;;0.00;0.00;;;;;;;7.63;100.00;98166.75;5136966;27;20189;-52
2023/12/23 05:47:39;;;;;;;0.00;0.00;;;;;;;7.63;100.00;98159.69;5136813;27;20189;-52
2023/12/23 05:50:26;;;;;;;0.00;0.00;;;;;;;7.64;100.00;98160.53;5136631;27;20193;-52
2023/12/23 05:53:13;;;;;;;0.00;0.00;;;;;;;7.62;100.00;98146.59;5135328;27;20733;-52
2023/12/23 05:55:59;;;;;;;0.00;0.00;;;;;;;7.67;100.00;98157.69;5136485;27;20197;-52
2023/12/23 05:58:48;;;;;;;0.00;0.00;;;;;;;7.79;100.00;98156.00;5136553;27;20189;-52
2023/12/23 06:01:34;;;;;;;0.00;0.00;;;;;;;7.81;100.00;98146.19;5136523;27;20189;-52
2023/12/23 06:04:21;;;;;;;0.00;0.00;;;;;;;7.80;100.00;98147.13;5136506;27;20552;-52
2023/12/23 06:07:08;;;;;;;0.00;0.00;;;;;;;7.73;100.00;98155.47;5134930;27;20189;-52
2023/12/23 06:09:55;;;;;;;0.00;0.00;;;;;;;7.79;100.00;98141.03;5136301;27;20254;-52
2023/12/23 06:12:42;;;;;;;0.00;0.00;;;;;;;7.86;100.00;98146.72;5136424;27;20256;-52
2023/12/23 06:15:30;;;;;;;0.10;0.10;;;;;;;7.85;100.00;98152.94;5135823;27;20718;-52
2023/12/23 06:18:16;;;;;;;0.00;0.00;;;;;;;7.90;100.00;98143.75;5135766;27;20225;-52
2023/12/23 06:21:04;;;;;;;0.00;0.00;;;;;;;7.85;100.00;98137.13;5136178;27;20568;-53
2023/12/23 06:23:50;;;;;;;0.00;0.00;;;;;;;7.81;100.00;98138.28;5136042;27;20198;-52
2023/12/23 06:26:37;;;;;;;0.00;0.00;;;;;;;7.85;100.00;98126.59;5136038;27;20253;-52
2023/12/23 06:29:24;;;;;;;0.00;0.00;;;;;;;7.85;100.00;98126.59;5135776;27;20725;-52
2023/12/23 06:32:13;;;;;;;0.00;0.00;;;;;;;7.91;100.00;98134.91;5135847;27;20355;-52
2023/12/23 06:35:00;;;;;;;0.00;0.00;;;;;;;7.91;100.00;98134.03;5135878;27;20186;-52
2023/12/23 06:37:47;;;;;;;0.00;0.00;;;;;;;7.92;100.00;98122.56;5134218;27;20210;-52
2023/12/23 06:40:33;;;;;;;0.00;0.00;;;;;;;8.01;100.00;98127.22;5135744;27;20198;-52
2023/12/23 06:43:20;;;;;;;0.00;0.00;;;;;;;7.97;100.00;98131.00;5135724;27;20311;-52
2023/12/23 06:46:27;;;;;;;0.10;0.10;;;;;;;7.91;100.00;98131.41;5135520;27;20683;-52
2023/12/23 06:49:18;;;;;;;0.07;0.07;;;;;;;7.92;100.00;98133.13;5135444;27;20744;-52
2023/12/23 06:52:05;;;;;;;0.07;0.07;;;;;;;7.97;100.00;98129.19;5134076;27;20283;-52
2023/12/23 06:54:52;;;;;;;0.10;0.10;;;;;;;7.95;100.00;98127.63;5135347;27;20201;-52
2023/12/23 06:57:39;;;;;;;0.00;0.00;;;;;;;7.97;100.00;98121.28;5135248;27;20221;-52
2023/12/23 07:00:26;;;;;;;0.00;0.00;;;;;;;8.01;100.00;98119.31;5135164;27;20282;-52
2023/12/23 07:03:13;;;;;;;0.00;0.00;;;;;;;7.98;100.00;98125.59;5135115;27;20193;-52
2023/12/23 07:06:01;;;;;;;0.10;0.10;;;;;;;8.02;100.00;98128.88;5135028;27;20267;-52
2023/12/23 07:08:48;;;;;;;0.00;0.00;;;;;;;8.06;100.00;98125.06;5134988;27;20193;-52
2023/12/23 07:11:35;;;;;;;0.00;0.00;;;;;;;7.99;100.00;98122.03;5135023;27;20267;-52
2023/12/23 07:14:22;;;;;;;0.00;0.00;;;;;;;8.01;100.00;98120.13;5135075;27;20235;-52
2023/12/23 07:17:09;;;;;;;0.00;0.00;;;;;;;8.08;100.00;98128.44;5134746;27;20699;-52
2023/12/23 07:19:56;;;;;;;0.00;0.00;;;;;;;8.11;100.00;98119.50;5134603;27;20221;-52
2023/12/23 07:22:44;;;;;;;0.00;0.00;;;;;;;8.28;100.00;98122.59;5133514;27;20193;-52
2023/12/23 07:25:33;;;;;;;0.00;0.00;;;;;;;8.25;100.00;98149.19;5134205;27;20189;-52
2023/12/23 07:28:20;;;;;;;0.00;0.00;;;;;;;8.35;100.00;98132.75;5134705;27;20189;-52
2023/12/23 07:31:07;;;;;;;0.00;0.00;;;;;;;8.36;100.00;98126.53;5134576;27;20259;-52
2023/12/23 07:33:53;;;;;;;0.00;0.00;;;;;;;8.29;100.00;98139.25;5134497;27;20259;-52
2023/12/23 07:36:40;;;;;;;0.00;0.00;;;;;;;8.25;100.00;98135.16;5133345;27;20193;-53
2023/12/23 07:39:28;;;;;;;0.00;0.00;;;;;;;8.27;100.00;98128.81;5134679;27;20197;-52
2023/12/23 07:42:15;;;;;;;0.00;0.00;;;;;;;8.32;100.00;98139.91;5134333;27;20205;-53
2023/12/23 07:45:02;;;;;;;0.00;0.00;;;;;;;8.29;100.00;98145.38;5134613;27;20239;-52
2023/12/23 07:47:49;;;;;;;0.00;0.00;;;;;;;8.37;100.00;98134.31;5133487;27;20193;-52
2023/12/23 07:50:36;;;;;;;0.00;0.00;;;;;;;8.38;100.00;98135.16;5134245;27;20193;-52
2023/12/23 07:53:23;;;;;;;0.00;0.00;;;;;;;8.35;100.00;98114.28;5132865;27;20205;-52
2023/12/23 07:56:11;;;;;;;0.00;0.00;;;;;;;8.38;100.00;98117.53;5134144;27;20708;-52
2023/12/23 07:58:58;;;;;;;0.00;0.00;;;;;;;8.40;100.00;98110.38;5133905;27;20221;-52
2023/12/23 08:01:45;;;;;;;0.00;0.00;;;;;;;8.48;100.00;98117.72;5134190;27;20202;-53
2023/12/23 08:04:32;;;;;;;0.00;0.00;;;;;;;8.47;100.00;98118.66;5134261;27;20185;-52
2023/12/23 08:07:19;;;;;;;0.00;0.00;;;;;;;8.47;100.00;98116.03;5132712;27;20213;-52
2023/12/23 08:10:07;;;;;;;0.00;0.00;;;;;;;8.52;100.00;98114.75;5133775;27;20209;-53
2023/12/23 08:12:55;;;;;;;0.00;0.00;;;;;;;8.53;100.00;98110.31;5134158;27;20185;-52
2023/12/23 08:15:42;;;;;;;0.00;0.00;;;;;;;8.52;100.00;98117.41;5133863;27;20193;-53
2023/12/23 08:18:29;;;;;;;0.00;0.00;;;;;;;8.58;100.00;98105.53;5133756;27;20229;-52
2023/12/23 08:21:16;;;;;;;0.00;0.00;;;;;;;8.61;100.00;98107.97;5132804;27;20288;-52
2023/12/23 08:24:03;;;;;;;0.00;0.00;;;;;;;8.62;100.00;98114.94;5133906;27;20201;-52
2023/12/23 08:26:51;;;;;;;0.00;0.00;;;;;;;8.59;100.00;98121.28;5133905;28;20197;-53
2023/12/23 08:29:40;;;;;;;0.00;0.00;;;;;;;8.67;100.00;98118.06;5133768;28;20246;-52
2023/12/23 08:32:27;;;;;;;0.00;0.00;;;;;;;8.62;100.00;98114.09;5133670;28;20687;-53
2023/12/23 08:35:14;;;;;;;0.00;0.00;;;;;;;8.69;100.00;98120.63;5133810;28;20255;-52
2023/12/23 08:38:00;;;;;;;0.00;0.00;;;;;;;8.74;100.00;98107.91;5134503;27;20239;-52
2023/12/23 08:40:47;;;;;;;0.00;0.00;;;;;;;8.70;100.00;98106.47;5138097;27;20190;-52
2023/12/23 08:43:34;;;;;;;0.00;0.00;;;;;;;8.74;100.00;98126.38;5138116;27;20192;-52
2023/12/23 08:46:23;;;;;;;0.00;0.00;;;;;;;8.77;100.00;98137.56;5137931;27;20255;-52
2023/12/23 08:49:09;;;;;;;0.00;0.00;;;;;;;8.82;100.00;98138.06;5137799;27;20201;-52
2023/12/23 08:51:56;;;;;;;0.00;0.00;;;;;;;8.83;100.00;98123.06;5136428;27;20243;-52
2023/12/23 08:54:43;;;;;;;0.00;0.00;;;;;;;8.87;100.00;98128.00;5137768;27;20205;-52
2023/12/23 08:57:30;;;;;;;0.00;0.00;;;;;;;8.88;100.00;98129.72;5137651;27;20186;-52
2023/12/23 09:00:17;;;;;;;0.00;0.00;;;;;;;8.86;100.00;98120.19;5137773;27;20182;-52
2023/12/23 09:03:06;;;;;;;0.10;0.10;;;;;;;8.91;100.00;98110.16;5137117;27;20205;-51
2023/12/23 09:05:52;;;;;;;0.00;0.00;;;;;;;8.86;100.00;98125.47;5137404;27;20666;-52
2023/12/23 09:08:39;;;;;;;0.00;0.00;;;;;;;8.90;100.00;98113.75;5137522;27;20185;-52
2023/12/23 09:11:26;;;;;;;0.00;0.00;;;;;;;8.86;100.00;98121.03;5137494;27;20197;-52
2023/12/23 09:14:14;;;;;;;0.00;0.00;;;;;;;8.88;100.00;98129.72;5137407;27;20190;-52
2023/12/23 09:17:01;;;;;;;0.00;0.00;;;;;;;8.92;100.00;98125.03;5137337;27;20185;-51
2023/12/23 09:19:50;;;;;;;0.00;0.00;;;;;;;8.99;100.00;98139.47;5135823;27;20229;-52
2023/12/23 09:22:36;;;;;;;0.00;0.00;;;;;;;8.95;100.00;98123.97;5135878;27;20193;-52
2023/12/23 09:25:23;;;;;;;0.00;0.00;;;;;;;8.95;100.00;98130.09;5137258;27;20254;-52
2023/12/23 09:28:10;;;;;;;0.00;0.00;;;;;;;8.96;100.00;98134.41;5137090;27;20639;-52
2023/12/23 09:30:57;;;;;;;0.00;0.00;;;;;;;9.00;100.00;98132.41;5137240;27;20197;-52
2023/12/23 09:33:44;;;;;;;0.00;0.00;;;;;;;9.00;100.00;98133.25;5137162;27;20270;-52
2023/12/23 09:36:32;;;;;;;0.10;0.10;;;;;;;9.06;100.00;98145.97;5135540;27;20255;-51
2023/12/23 09:39:19;;;;;;;0.00;0.00;;;;;;;9.02;100.00;98155.09;5136632;27;20765;-52
2023/12/23 09:42:07;;;;;;;0.00;0.00;;;;;;;9.06;100.00;98150.41;5136949;27;20193;-52
2023/12/23 09:44:55;;;;;;;0.00;0.00;;;;;;;9.01;100.00;98161.34;5136784;27;20236;-52
2023/12/23 09:47:42;;;;;;;0.00;0.00;;;;;;;9.08;100.00;98167.03;5136441;27;20190;-52
2023/12/23 09:50:29;;;;;;;0.00;0.00;;;;;;;9.05;100.00;98162.78;5135835;27;20299;-52
2023/12/23 09:53:21;;;;;;;0.00;0.00;;;;;;;9.03;100.00;98162.06;5135161;27;20239;-52
2023/12/23 09:56:08;;;;;;;0.00;0.00;;;;;;;9.10;100.00;98162.47;5136879;27;20197;-52
2023/12/23 09:58:55;;;;;;;0.00;0.00;;;;;;;9.05;100.00;98154.00;5136219;27;20209;-52
2023/12/23 10:01:42;;;;;;;0.00;0.00;;;;;;;9.01;100.00;98168.41;5136354;27;20182;-52
2023/12/23 10:04:29;;;;;;;0.00;0.00;;;;;;;9.03;100.00;98164.69;5136472;27;20185;-52
2023/12/23 10:07:16;;;;;;;0.00;0.00;;;;;;;9.00;100.00;98159.66;5135083;27;20250;-52
2023/12/23 10:10:06;;;;;;;0.00;0.00;;;;;;;9.02;100.00;98165.66;5136388;27;20185;-52
2023/12/23 10:12:53;;;;;;;0.00;0.00;;;;;;;8.99;100.00;98165.06;5136457;27;20269;-52
2023/12/23 10:15:41;;;;;;;0.00;0.00;;;;;;;9.00;100.00;98169.38;5136241;27;20263;-52
2023/12/23 10:18:27;;;;;;;0.00;0.00;;;;;;;9.03;100.00;98145.38;5134844;27;20237;-52
2023/12/23 10:21:14;;;;;;;0.00;0.00;;;;;;;9.11;100.00;98161.50;5134250;27;20201;-52
2023/12/23 10:24:02;;;;;;;0.00;0.00;;;;;;;9.08;100.00;98152.00;5136044;27;20228;-52
2023/12/23 10:26:50;;;;;;;0.10;0.10;;;;;;;9.07;100.00;98157.38;5135648;27;20247;-52
2023/12/23 10:29:41;;;;;;;0.10;0.10;;;;;;;9.06;100.00;98153.91;5136106;27;20186;-52
2023/12/23 10:32:31;;;;;;;0.03;0.03;;;;;;;9.12;100.00;98157.91;5135662;27;20196;-52
2023/12/23 10:35:20;;;;;;;0.00;0.00;;;;;;;9.13;100.00;98167.50;5135694;27;20232;-52
2023/12/23 10:38:10;;;;;;;0.00;0.00;;;;;;;9.10;100.00;98160.66;5134270;27;20741;-51
2023/12/23 10:41:12;;;;;;;0.00;0.00;;;;;;;9.14;100.00;98155.97;5135808;27;20194;-52
2023/12/23 10:44:01;;;;;;;0.00;0.00;;;;;;;9.16;100.00;98165.47;5135422;27;20679;-52
2023/12/23 10:46:51;;;;;;;0.00;0.00;;;;;;;9.16;100.00;98162.81;5135476;27;20182;-52
2023/12/23 10:49:38;;;;;;;0.00;0.00;;;;;;;9.18;100.00;98171.50;5135486;27;20190;-52
2023/12/23 10:52:26;;;;;;;0.00;0.00;;;;;;;9.14;100.00;98169.19;5134185;27;20672;-52
2023/12/23 10:55:13;;;;;;;0.00;0.00;;;;;;;9.17;100.00;98169.81;5135347;27;20201;-52
2023/12/23 10:58:00;;;;;;;0.00;0.00;;;;;;;9.24;100.00;98158.78;5135047;27;20197;-52
2023/12/23 11:00:50;;;;;;;0.00;0.00;;;;;;;9.22;100.00;98173.91;5133872;27;20233;-52
2023/12/23 11:03:38;;;;;;;0.00;0.00;;;;;;;9.31;100.00;98167.94;5134949;27;20247;-52
2023/12/23 11:06:25;;;;;;;0.00;0.00;;;;;;;9.22;100.00;98164.19;5133548;27;20240;-52
2023/12/23 11:09:14;;;;;;;0.00;0.00;;;;;;;9.27;100.00;98163.84;5134094;27;20258;-52
2023/12/23 11:12:01;;;;;;;0.00;0.00;;;;;;;9.34;100.00;98172.97;5135034;27;20189;-52
2023/12/23 11:14:48;;;;;;;0.00;0.00;;;;;;;9.32;100.00;98177.53;5134927;27;20345;-52
2023/12/23 11:17:41;;;;;;;0.00;0.00;;;;;;;9.38;100.00;98177.09;5134852;27;20193;-52
2023/12/23 11:20:49;;;;;;;0.00;0.00;;;;;;;9.46;100.00;98169.44;5093787;28;20341;-51
2023/12/23 11:23:36;;;;;;;0.00;0.00;;;;;;;9.45;100.00;98175.66;5094042;28;20203;-52
2023/12/23 11:26:42;;;;;;;0.00;0.00;;;;;;;9.53;100.00;98170.63;5093859;28;20195;-52
2023/12/23 11:29:30;;;;;;;0.00;0.00;;;;;;;9.49;100.00;98150.69;5093717;28;20302;-52
2023/12/23 11:32:16;;;;;;;0.00;0.00;;;;;;;9.49;100.00;98158.63;5093967;28;20191;-52
2023/12/23 11:35:06;;;;;;;0.00;0.00;;;;;;;9.53;100.00;98168.00;5093607;28;20238;-53
2023/12/23 11:37:55;;;;;;;0.00;0.00;;;;;;;9.52;100.00;98168.97;5092179;28;20191;-52
2023/12/23 11:40:43;;;;;;;0.00;0.00;;;;;;;9.47;100.00;98157.91;5093546;28;20222;-52
2023/12/23 11:43:30;;;;;;;0.00;0.00;;;;;;;9.49;100.00;98161.28;5093915;28;20261;-52
2023/12/23 11:46:19;;;;;;;0.00;0.00;;;;;;;9.50;100.00;98164.75;5093362;28;20194;-52
2023/12/23 11:49:08;;;;;;;0.00;0.00;;;;;;;9.59;100.00;98156.97;5092582;28;20182;-52
2023/12/23 11:51:57;;;;;;;0.10;0.10;;;;;;;9.54;100.00;98143.25;5091113;28;20280;-53
2023/12/23 11:54:44;;;;;;;0.10;0.10;;;;;;;9.61;100.00;98157.69;5093348;28;20198;-52
2023/12/23 11:57:32;;;;;;;0.00;0.00;;;;;;;9.68;100.00;98152.78;5093391;28;20195;-52
2023/12/23 12:00:19;;;;;;;0.00;0.00;;;;;;;9.68;100.00;98142.22;5093135;28;20247;-52
2023/12/23 12:03:06;;;;;;;0.10;0.10;;;;;;;9.84;100.00;98141.84;5093299;28;20306;-52
2023/12/23 12:05:55;;;;;;;0.00;0.00;;;;;;;9.95;100.00;98147.19;5093179;28;20333;-52
2023/12/23 12:08:43;;;;;;;0.00;0.00;;;;;;;9.94;100.00;98124.31;5093294;28;20283;-52
2023/12/23 12:11:30;;;;;;;0.03;0.03;;;;;;;9.92;100.00;98132.38;5093128;28;20206;-52
2023/12/23 12:14:17;;;;;;;0.00;0.00;;;;;;;9.94;100.00;98119.03;5093134;28;20199;-52
2023/12/23 12:17:04;;;;;;;0.00;0.00;;;;;;;9.92;100.00;98119.16;5093223;28;20191;-52
2023/12/23 12:19:55;;;;;;;0.00;0.00;;;;;;;9.96;100.00;98111.84;5131780;27;20225;-52
2023/12/23 12:22:44;;;;;;;0.00;0.00;;;;;;;9.89;100.00;98124.69;5132414;27;20193;-52
2023/12/23 12:25:35;;;;;;;0.00;0.00;;;;;;;9.87;100.00;98115.19;5133848;27;20186;-52
2023/12/23 12:28:22;;;;;;;0.00;0.00;;;;;;;9.78;100.00;98100.03;5133888;28;20198;-52
2023/12/23 12:31:11;;;;;;;0.10;0.10;;;;;;;9.89;100.00;98114.09;5133859;28;20185;-52
2023/12/23 12:33:58;;;;;;;0.00;0.00;;;;;;;9.85;100.00;98125.91;5133854;28;20327;-52
2023/12/23 12:36:45;;;;;;;0.00;0.00;;;;;;;9.89;100.00;98113.25;5132457;28;20197;-52
2023/12/23 12:39:32;;;;;;;0.00;0.00;;;;;;;9.94;100.00;98116.38;5133672;28;20193;-52
2023/12/23 12:42:21;;;;;;;0.00;0.00;;;;;;;9.92;100.00;98113.84;5133727;28;20319;-52
2023/12/23 12:45:08;;;;;;;0.00;0.00;;;;;;;9.96;100.00;98122.41;5133738;28;20193;-52
2023/12/23 12:47:54;;;;;;;0.10;0.10;;;;;;;9.91;100.00;98133.34;5133751;28;20336;-52
2023/12/23 12:50:42;;;;;;;0.00;0.00;;;;;;;9.91;100.00;98113.97;5133684;28;20190;-52
2023/12/23 12:53:30;;;;;;;0.00;0.00;;;;;;;9.86;100.00;98129.38;5133138;28;20196;-52
2023/12/23 12:56:20;;;;;;;0.00;0.00;;;;;;;9.77;100.00;98141.50;5133494;28;20185;-52
2023/12/23 12:59:10;;;;;;;0.00;0.00;;;;;;;9.76;100.00;98153.03;5132535;28;20206;-52
2023/12/23 13:01:57;;;;;;;0.10;0.10;;;;;;;9.72;100.00;98162.16;5133205;28;20240;-52
2023/12/23 13:04:44;;;;;;;0.00;0.00;;;;;;;9.61;100.00;98156.84;5133228;28;20687;-52
2023/12/23 13:07:30;;;;;;;0.00;0.00;;;;;;;9.66;100.00;98165.28;5130982;28;20277;-52
2023/12/23 13:10:17;;;;;;;0.00;0.00;;;;;;;9.71;100.00;98168.41;5133150;28;20300;-52